Bedwas, United Kingdom
Current Conditions -  °F | °C
As of 1:20 PM on Thursday 18 Dec 2014 (Local Time) from EGFF Reporting Station
Overcast Overcast  
Wind Chill: 54°   Ceiling: 500
Heat Index: 54°   Visibility: 6mi
Dew Point: 52°   Wind: 26mph
Humidity: 94%   Direction: 260°W
Pressure: 29.83"   Gusts: 38mph
Location:  51.59°N, 3.2°W
Report Text: EGFF 181320Z AUTO 26023G33KT 9999 OVC005 12/11 Q1010
Loading
Personal Weather Stations






























Interactive Weather Map New forecast layout! Learn more

10-Day Weather Forecast

Advertisements
Track Severe Weather on mobile